Time;durP1;ratioP1;P1;durP2;ratioP2;P2;SDS_P1;SDS_P2;PMS_P1;PMS_P2;Temp;Humidity;BMP_temperature;BMP_pressure;BME280_temperature;BME280_humidity;BME280_pressure;Samples;Min_cycle;Max_cycle;Signal;HPM_P1;HPM_P2
2021/01/08 00:01:09;;;;;;;2.37;0.90;;;;;;;1.13;87.82;100857.22;4963392;28;20222;-69
2021/01/08 00:03:39;;;;;;;2.77;1.70;;;;;;;1.10;87.55;100857.31;4955832;28;20247;-69
2021/01/08 00:06:06;;;;;;;1.47;1.07;;;;;;;1.10;87.82;100857.31;4966454;28;20378;-69
2021/01/08 00:08:33;;;;;;;1.10;1.00;;;;;;;1.15;87.44;100856.25;4963583;28;20291;-68
2021/01/08 00:11:01;;;;;;;1.20;1.10;;;;;;;1.12;87.75;100848.41;4968999;28;20857;-69
2021/01/08 00:13:28;;;;;;;4.83;1.47;;;;;;;1.12;87.85;100855.47;4959831;28;20949;-69
2021/01/08 00:15:55;;;;;;;2.73;1.43;;;;;;;1.07;87.67;100854.75;4964993;28;20214;-68
2021/01/08 00:18:24;;;;;;;2.63;1.53;;;;;;;1.04;87.87;100866.28;4964630;28;20235;-69
2021/01/08 00:20:51;;;;;;;2.00;1.10;;;;;;;1.01;88.09;100865.50;4961171;28;20210;-69
2021/01/08 00:23:18;;;;;;;1.20;0.90;;;;;;;1.05;88.04;100859.22;4951379;28;20322;-69
2021/01/08 00:25:50;;;;;;;1.77;1.43;;;;;;;1.07;87.97;100857.38;4962038;28;20326;-69
2021/01/08 00:28:18;;;;;;;1.93;1.27;;;;;;;0.56;87.84;100768.88;4970271;28;20576;-69
2021/01/08 00:30:45;;;;;;;2.77;1.07;;;;;;;1.07;87.80;100860.03;4974163;28;20221;-68
2021/01/08 00:33:13;;;;;;;1.23;0.90;;;;;;;0.95;87.86;100840.09;4969598;28;20214;-68
2021/01/08 00:35:41;;;;;;;1.37;1.23;;;;;;;1.09;87.97;100868.78;4955066;28;20227;-68
2021/01/08 00:38:09;;;;;;;1.17;0.93;;;;;;;0.87;88.38;100826.19;4979132;28;20219;-69
2021/01/08 00:40:37;;;;;;;1.80;1.10;;;;;;;1.11;87.91;100864.31;4970999;28;20209;-69
2021/01/08 00:43:04;;;;;;;2.93;1.40;;;;;;;1.12;88.04;100868.72;4986736;28;20303;-68
2021/01/08 00:45:31;;;;;;;3.03;1.40;;;;;;;1.09;88.12;100871.44;4977905;28;20203;-68
2021/01/08 00:47:59;;;;;;;2.63;1.23;;;;;;;1.08;88.12;100877.63;4965067;28;20215;-69
2021/01/08 00:50:26;;;;;;;1.43;1.07;;;;;;;1.06;88.25;100864.47;4988362;28;20210;-68
2021/01/08 00:52:55;;;;;;;2.13;1.07;;;;;;;1.07;88.35;100873.25;4977805;28;20675;-68
2021/01/08 00:55:23;;;;;;;1.57;1.30;;;;;;;1.06;88.37;100871.53;4962864;28;20229;-68
2021/01/08 00:57:57;;;;;;;9.77;5.17;;;;;;;1.07;88.42;100876.75;4984902;28;20289;-68
2021/01/08 01:00:25;;;;;;;4.63;2.33;;;;;;;1.07;88.81;100881.19;4983609;28;20308;-68
2021/01/08 01:02:52;;;;;;;1.23;1.13;;;;;;;1.09;88.53;100879.38;4981136;28;20199;-68
2021/01/08 01:05:19;;;;;;;5.70;1.50;;;;;;;1.10;88.55;100874.03;4988143;28;20660;-69
2021/01/08 01:07:47;;;;;;;1.40;1.30;;;;;;;1.15;88.46;100873.91;4974994;28;20212;-68
2021/01/08 01:10:15;;;;;;;1.83;1.23;;;;;;;1.12;88.80;100868.72;4980428;28;20233;-68
2021/01/08 01:12:42;;;;;;;2.20;1.17;;;;;;;1.10;88.66;100870.53;4973816;28;20217;-69
2021/01/08 01:15:10;;;;;;;1.43;1.20;;;;;;;1.10;88.62;100865.25;4985176;28;20241;-68
2021/01/08 01:17:39;;;;;;;2.47;1.50;;;;;;;1.13;88.57;100870.44;4975453;28;20203;-68
2021/01/08 01:20:08;;;;;;;2.33;1.20;;;;;;;1.14;88.51;100859.81;4986980;28;20231;-68
2021/01/08 01:22:35;;;;;;;1.60;1.33;;;;;;;1.14;88.49;100869.53;4985983;28;20592;-69
2021/01/08 01:25:02;;;;;;;1.53;1.33;;;;;;;1.19;88.35;100864.97;4980280;28;20555;-68
2021/01/08 01:27:30;;;;;;;2.70;1.70;;;;;;;1.17;88.52;100870.31;4976055;28;20200;-69
2021/01/08 01:29:57;;;;;;;1.67;1.20;;;;;;;1.15;88.45;100869.47;4952567;28;20216;-67
2021/01/08 01:32:25;;;;;;;2.77;1.33;;;;;;;1.17;88.57;100872.09;4965689;28;20214;-67
2021/01/08 01:34:52;;;;;;;3.47;1.40;;;;;;;1.20;88.42;100872.00;4978493;28;20902;-67
2021/01/08 01:37:19;;;;;;;1.73;1.03;;;;;;;1.20;88.35;100874.66;4979100;28;20556;-67
2021/01/08 01:39:46;;;;;;;2.37;1.10;;;;;;;1.28;88.33;100874.47;4982047;28;20203;-68
2021/01/08 01:42:14;;;;;;;2.17;1.50;;;;;;;1.23;88.15;100877.25;4987026;28;20207;-68
2021/01/08 01:44:42;;;;;;;1.73;1.23;;;;;;;1.19;88.54;100870.28;4981187;28;20305;-68
2021/01/08 01:47:09;;;;;;;4.70;2.00;;;;;;;1.24;88.32;100871.91;4969115;28;20242;-68
2021/01/08 01:49:37;;;;;;;2.03;1.07;;;;;;;1.18;88.31;100869.41;4967928;28;20263;-68
2021/01/08 01:52:04;;;;;;;2.30;1.50;;;;;;;1.19;88.27;100875.56;4971366;28;20208;-68
2021/01/08 01:54:31;;;;;;;1.30;1.13;;;;;;;1.19;88.16;100886.13;4967809;28;20338;-68
2021/01/08 01:57:02;;;;;;;1.70;1.27;;;;;;;1.16;88.04;100883.56;4967449;28;20226;-68
2021/01/08 01:59:29;;;;;;;2.30;1.40;;;;;;;1.16;88.13;100884.44;4970447;28;20316;-68
2021/01/08 02:01:59;;;;;;;1.10;1.00;;;;;;;1.17;88.20;100880.88;4960507;28;20201;-68
2021/01/08 02:04:27;;;;;;;1.03;1.00;;;;;;;0.89;87.96;100845.53;4963404;28;20583;-68
2021/01/08 02:06:56;;;;;;;4.53;1.50;;;;;;;1.09;88.25;100889.94;4953558;28;20200;-68
2021/01/08 02:09:24;;;;;;;1.80;1.17;;;;;;;1.12;88.31;100896.00;4961472;28;20200;-68
2021/01/08 02:11:56;;;;;;;1.37;1.27;;;;;;;1.19;88.42;100888.78;4965114;28;20590;-68
2021/01/08 02:14:27;;;;;;;1.97;1.43;;;;;;;0.97;88.32;100855.91;4967517;28;20720;-68
2021/01/08 02:16:56;;;;;;;1.30;1.20;;;;;;;1.13;88.36;100891.59;4966340;28;20205;-68
2021/01/08 02:19:32;;;;;;;1.43;1.33;;;;;;;1.19;88.27;100888.78;4962061;28;20211;-68
2021/01/08 02:22:08;;;;;;;2.73;1.40;;;;;;;1.17;88.18;100882.66;4964065;28;20280;-68
2021/01/08 02:24:40;;;;;;;1.33;1.23;;;;;;;1.19;88.13;100880.84;4967110;28;20210;-68
2021/01/08 02:27:08;;;;;;;1.33;1.00;;;;;;;1.18;88.67;100885.28;4967701;28;20217;-68
2021/01/08 02:29:36;;;;;;;1.10;1.00;;;;;;;1.19;88.06;100886.13;4969915;28;20208;-68
2021/01/08 02:32:04;;;;;;;1.83;1.30;;;;;;;1.31;88.05;100899.03;4970701;28;20221;-68
2021/01/08 02:34:32;;;;;;;2.30;1.50;;;;;;;1.24;88.13;100887.78;4957723;28;20245;-68
2021/01/08 02:37:00;;;;;;;1.60;1.27;;;;;;;1.28;87.71;100896.50;4961267;28;20310;-68
2021/01/08 02:39:27;;;;;;;2.80;1.50;;;;;;;1.22;88.06;100902.81;4968981;28;20215;-68
2021/01/08 02:41:55;;;;;;;1.27;1.03;;;;;;;1.22;88.24;100891.34;4978833;28;20293;-68
2021/01/08 02:44:24;;;;;;;87.97;41.63;;;;;;;1.26;88.04;100895.66;4973092;28;20226;-68
2021/01/08 02:46:51;;;;;;;8.03;3.13;;;;;;;1.24;88.31;100897.47;4971596;28;20289;-68
2021/01/08 02:49:19;;;;;;;0.90;0.90;;;;;;;1.18;88.42;100892.34;4968696;28;20225;-68
2021/01/08 02:51:46;;;;;;;1.50;1.30;;;;;;;1.25;88.94;100888.63;4984966;28;20751;-68
2021/01/08 02:54:13;;;;;;;3.00;2.07;;;;;;;1.27;88.79;100902.69;4980243;28;20248;-68
2021/01/08 02:56:45;;;;;;;2.07;1.47;;;;;;;0.84;89.27;100836.84;4984853;28;20216;-68
2021/01/08 02:59:13;;;;;;;2.87;1.30;;;;;;;1.17;88.75;100893.25;4952859;28;20213;-68
2021/01/08 03:01:43;;;;;;;1.23;1.13;;;;;;;1.17;89.25;100898.53;4983473;28;20221;-68
2021/01/08 03:04:11;;;;;;;1.90;1.37;;;;;;;1.18;89.44;100901.13;4986488;28;20232;-68
2021/01/08 03:06:41;;;;;;;1.50;1.30;;;;;;;1.20;89.02;100898.44;4959500;28;20206;-69
2021/01/08 03:09:08;;;;;;;2.00;1.30;;;;;;;1.12;89.29;100900.44;4977035;28;20225;-68
2021/01/08 03:11:35;;;;;;;1.70;1.27;;;;;;;1.14;89.33;100901.25;4986709;28;20236;-68
2021/01/08 03:14:04;;;;;;;3.47;1.73;;;;;;;1.13;89.44;100903.03;4990634;28;20226;-68
2021/01/08 03:16:32;;;;;;;1.73;1.20;;;;;;;1.10;89.33;100897.84;4980304;28;20712;-68
2021/01/08 03:19:00;;;;;;;3.07;1.20;;;;;;;1.13;89.33;100896.88;4983914;28;20214;-68
2021/01/08 03:21:27;;;;;;;1.23;1.10;;;;;;;1.12;89.26;100903.09;4988703;28;20601;-68
2021/01/08 03:23:54;;;;;;;2.77;1.50;;;;;;;1.12;89.27;100900.44;4984005;28;20292;-68
2021/01/08 03:26:22;;;;;;;2.53;1.37;;;;;;;1.09;89.49;100896.09;4982692;28;20210;-68
2021/01/08 03:28:49;;;;;;;1.60;1.27;;;;;;;1.11;89.56;100898.69;4973510;28;22073;-68
2021/01/08 03:31:16;;;;;;;1.10;1.10;;;;;;;1.15;89.09;100900.34;4970478;28;20221;-68
2021/01/08 03:33:43;;;;;;;2.27;1.30;;;;;;;1.06;89.76;100895.31;4966813;28;20216;-68
2021/01/08 03:36:12;;;;;;;1.27;1.17;;;;;;;1.09;89.81;100901.38;4952351;28;20247;-68
2021/01/08 03:38:39;;;;;;;2.83;1.30;;;;;;;0.87;89.96;100869.34;4963328;28;20219;-68
2021/01/08 03:41:06;;;;;;;1.40;1.30;;;;;;;1.06;89.92;100892.69;4958032;28;20212;-68
2021/01/08 03:43:33;;;;;;;1.50;1.10;;;;;;;1.05;89.77;100898.88;4957672;28;20208;-68
2021/01/08 03:46:00;;;;;;;1.83;1.23;;;;;;;1.14;90.00;100895.97;4957488;28;20204;-68
2021/01/08 03:48:27;;;;;;;1.43;1.20;;;;;;;1.13;89.33;100902.16;4955898;28;20292;-68
2021/01/08 03:50:54;;;;;;;1.73;1.30;;;;;;;1.09;89.71;100889.94;4951019;28;20212;-68
2021/01/08 03:53:22;;;;;;;1.60;1.10;;;;;;;1.09;89.84;100900.53;4967001;28;20659;-68
2021/01/08 03:55:50;;;;;;;2.37;1.20;;;;;;;1.12;89.98;100896.00;4958304;28;20229;-67
2021/01/08 03:58:18;;;;;;;1.90;1.53;;;;;;;1.10;89.70;100891.69;4955172;28;20565;-68
2021/01/08 04:00:45;;;;;;;1.80;0.90;;;;;;;1.09;89.92;100895.22;4956020;28;20213;-68
2021/01/08 04:03:12;;;;;;;1.20;0.93;;;;;;;1.09;89.92;100895.22;4960014;28;20265;-68
2021/01/08 04:05:40;;;;;;;2.40;1.47;;;;;;;1.06;89.90;100905.91;4960588;28;20200;-68
2021/01/08 04:08:07;;;;;;;2.40;1.30;;;;;;;1.01;90.22;100898.09;4967422;28;20227;-68
2021/01/08 04:10:35;;;;;;;2.47;1.40;;;;;;;1.02;90.27;100898.97;4951084;28;20249;-68
2021/01/08 04:13:02;;;;;;;2.57;1.23;;;;;;;0.61;90.21;100833.06;4953038;28;20583;-68
2021/01/08 04:15:29;;;;;;;2.57;1.10;;;;;;;1.02;90.18;100905.09;4959975;28;20668;-68
2021/01/08 04:17:56;;;;;;;1.33;1.23;;;;;;;1.02;90.18;100899.81;4962961;28;20207;-67
2021/01/08 04:20:23;;;;;;;3.60;1.30;;;;;;;1.05;90.08;100904.16;4959255;28;20211;-68
2021/01/08 04:22:51;;;;;;;2.47;1.43;;;;;;;0.83;90.05;100877.41;4954304;28;20251;-68
2021/01/08 04:25:18;;;;;;;1.30;1.20;;;;;;;0.98;90.13;100905.22;4952964;28;20599;-67
2021/01/08 04:27:46;;;;;;;2.20;1.23;;;;;;;1.01;90.40;100913.09;4966907;28;20674;-68
2021/01/08 04:30:14;;;;;;;1.70;1.33;;;;;;;1.05;90.59;100909.44;4966869;28;20221;-68
2021/01/08 04:32:41;;;;;;;1.90;1.27;;;;;;;1.04;90.23;100908.56;4971680;28;20714;-68
2021/01/08 04:35:10;;;;;;;1.67;1.30;;;;;;;1.02;90.26;100910.41;4973027;28;20221;-68
2021/01/08 04:37:37;;;;;;;1.00;0.87;;;;;;;1.06;90.11;100905.91;4968248;28;20210;-68
2021/01/08 04:40:05;;;;;;;5.23;3.07;;;;;;;1.08;90.02;100909.38;4958770;28;20218;-68
2021/01/08 04:42:33;;;;;;;1.67;1.17;;;;;;;1.17;90.16;100903.81;4956914;28;20204;-68
2021/01/08 04:45:02;;;;;;;2.23;1.73;;;;;;;1.11;89.89;100911.94;4949396;28;20307;-68
2021/01/08 04:47:32;;;;;;;1.70;1.40;;;;;;;0.87;90.09;100874.63;4957792;28;20219;-68
2021/01/08 04:50:01;;;;;;;3.83;1.87;;;;;;;1.09;90.40;100919.03;4950448;28;20255;-68
2021/01/08 04:52:30;;;;;;;1.37;1.23;;;;;;;1.14;90.05;100912.72;4950196;28;20227;-68
2021/01/08 04:54:57;;;;;;;1.60;1.50;;;;;;;1.14;90.03;100914.47;4957744;28;20232;-68
2021/01/08 04:57:27;;;;;;;1.73;1.30;;;;;;;1.15;90.12;100916.22;4954109;28;20208;-68
2021/01/08 04:59:54;;;;;;;6.47;1.63;;;;;;;1.15;90.43;100921.50;4957121;28;20203;-68
2021/01/08 05:02:22;;;;;;;3.23;1.87;;;;;;;1.19;90.00;100917.88;4967231;28;20751;-68
2021/01/08 05:04:51;;;;;;;3.00;1.47;;;;;;;1.17;89.50;100919.69;4950731;28;20219;-68
2021/01/08 05:07:19;;;;;;;3.70;1.20;;;;;;;1.21;89.90;100926.63;4948548;28;20596;-68
2021/01/08 05:09:46;;;;;;;2.67;1.60;;;;;;;1.25;89.87;100925.66;4949437;28;20223;-68
2021/01/08 05:12:13;;;;;;;4.17;2.40;;;;;;;1.22;89.88;100929.25;4954913;28;20211;-67
2021/01/08 05:14:41;;;;;;;1.60;1.50;;;;;;;1.21;89.82;100929.28;4952918;28;20225;-68
2021/01/08 05:17:08;;;;;;;3.47;2.33;;;;;;;1.22;89.91;100931.00;4948786;28;20211;-68
2021/01/08 05:19:37;;;;;;;1.93;1.30;;;;;;;1.23;89.48;100931.00;4959968;28;20218;-68
2021/01/08 05:22:05;;;;;;;2.07;1.83;;;;;;;1.21;89.58;100929.28;4965916;28;20257;-68
2021/01/08 05:24:33;;;;;;;2.63;1.20;;;;;;;1.18;89.48;100934.66;4966296;28;20219;-68
2021/01/08 05:27:05;;;;;;;6.00;1.50;;;;;;;1.22;89.92;100933.66;4964474;28;20844;-68
2021/01/08 05:29:32;;;;;;;2.37;1.73;;;;;;;1.17;89.84;100930.28;4966201;28;20254;-68
2021/01/08 05:31:59;;;;;;;1.50;1.40;;;;;;;1.17;89.67;100940.84;4967543;28;20201;-68
2021/01/08 05:34:35;;;;;;;2.00;1.50;;;;;;;1.14;89.82;100940.94;5102556;27;20529;-68
2021/01/08 05:37:03;;;;;;;8.80;1.87;;;;;;;1.14;89.75;100938.28;5097633;28;20200;-69
2021/01/08 05:39:30;;;;;;;3.87;1.73;;;;;;;1.18;89.80;100937.28;5097287;28;20301;-68
2021/01/08 05:41:57;;;;;;;3.43;1.70;;;;;;;1.16;89.79;100944.41;5089730;28;20209;-68
2021/01/08 05:44:24;;;;;;;2.00;1.80;;;;;;;1.24;89.62;100939.81;5095121;28;20199;-68
2021/01/08 05:46:52;;;;;;;2.43;1.67;;;;;;;1.19;89.99;100944.31;5092750;28;20199;-68
2021/01/08 05:49:21;;;;;;;3.90;1.27;;;;;;;1.16;89.76;100952.34;5091819;28;20268;-68
2021/01/08 05:51:49;;;;;;;3.77;1.80;;;;;;;1.00;89.80;100914.84;5087415;28;20198;-68
2021/01/08 05:54:18;;;;;;;1.60;1.40;;;;;;;1.26;89.53;100947.69;5087164;28;20710;-68
2021/01/08 05:56:46;;;;;;;2.50;1.30;;;;;;;1.23;89.55;100948.66;5091633;28;20294;-68
2021/01/08 05:59:13;;;;;;;2.37;1.50;;;;;;;1.20;89.57;100951.34;5091668;28;20210;-68
2021/01/08 06:01:42;;;;;;;4.40;1.80;;;;;;;1.19;89.59;100946.97;5083976;28;20237;-68
2021/01/08 06:04:09;;;;;;;2.03;1.10;;;;;;;1.16;89.81;100953.19;5090049;28;20971;-68
2021/01/08 06:06:40;;;;;;;2.53;1.23;;;;;;;1.26;89.51;100945.03;5090163;28;20210;-68
2021/01/08 06:09:11;;;;;;;3.70;1.50;;;;;;;1.24;89.38;100950.38;5081204;28;20211;-68
2021/01/08 06:11:43;;;;;;;4.50;2.17;;;;;;;1.24;89.61;100953.03;5082575;28;20685;-68
2021/01/08 06:14:11;;;;;;;2.50;1.10;;;;;;;1.21;89.65;100953.06;5074034;28;20223;-68
2021/01/08 06:16:40;;;;;;;2.47;1.47;;;;;;;1.23;89.82;100960.09;5089959;28;20195;-68
2021/01/08 06:19:09;;;;;;;2.57;1.53;;;;;;;1.25;89.48;100965.34;5087463;28;20203;-68
2021/01/08 06:21:38;;;;;;;6.00;4.33;;;;;;;1.28;89.58;100969.69;5092847;28;20706;-68
2021/01/08 06:24:12;;;;;;;3.03;1.80;;;;;;;1.18;89.66;100963.75;5087144;28;20578;-68
2021/01/08 06:26:41;;;;;;;1.77;1.50;;;;;;;1.22;89.91;100971.59;5084363;28;20889;-68
2021/01/08 06:29:17;;;;;;;5.80;2.03;;;;;;;1.24;89.86;100976.81;5089079;28;20213;-68
2021/01/08 06:31:49;;;;;;;3.43;1.70;;;;;;;1.29;89.64;100974.06;5078945;28;20285;-68
2021/01/08 06:34:23;;;;;;;2.30;1.43;;;;;;;1.12;89.70;100953.31;5082649;28;20716;-68
2021/01/08 06:37:04;;;;;;;3.13;2.13;;;;;;;1.33;89.62;100979.22;5082920;28;20662;-68
2021/01/08 06:39:36;;;;;;;3.87;1.73;;;;;;;1.32;89.47;100979.28;5079991;28;20204;-68
2021/01/08 06:42:05;;;;;;;3.80;1.43;;;;;;;1.34;89.78;100980.97;5078816;28;20998;-68
2021/01/08 06:44:33;;;;;;;1.93;1.50;;;;;;;1.32;89.37;100988.06;5073372;28;20200;-69
2021/01/08 06:47:02;;;;;;;7.93;1.90;;;;;;;1.25;89.31;100983.84;5088225;28;20238;-68
2021/01/08 06:49:31;;;;;;;1.33;1.23;;;;;;;1.29;89.33;100985.50;5087971;28;20227;-69
2021/01/08 06:52:00;;;;;;;2.20;1.40;;;;;;;1.39;89.21;100999.34;5088136;28;20544;-69
2021/01/08 06:54:28;;;;;;;3.37;1.70;;;;;;;1.25;89.06;100986.50;5087641;28;20233;-69
2021/01/08 06:57:00;;;;;;;2.30;1.50;;;;;;;1.32;89.27;100998.66;5087925;28;20207;-69
2021/01/08 06:59:32;;;;;;;1.37;1.20;;;;;;;1.29;89.29;100997.88;5086315;28;20208;-68
2021/01/08 07:02:03;;;;;;;3.73;1.80;;;;;;;1.29;89.18;101009.31;5082776;28;20200;-69
2021/01/08 07:04:32;;;;;;;5.07;3.50;;;;;;;1.30;89.35;101005.75;5084171;28;20676;-68
2021/01/08 07:07:02;;;;;;;1.63;1.33;;;;;;;1.35;89.16;101010.94;5087641;28;20199;-69
2021/01/08 07:09:33;;;;;;;2.67;1.73;;;;;;;1.30;89.30;101011.06;5087232;28;20200;-68
2021/01/08 07:12:02;;;;;;;2.43;1.50;;;;;;;1.33;89.25;101021.56;5087668;28;20241;-68
2021/01/08 07:14:29;;;;;;;2.43;1.30;;;;;;;1.32;89.33;101017.16;5087412;28;20313;-69
2021/01/08 07:16:58;;;;;;;2.20;1.80;;;;;;;1.35;89.21;101009.16;5087426;28;20277;-69
2021/01/08 07:19:28;;;;;;;6.30;1.80;;;;;;;1.35;89.26;101014.44;5087247;28;20214;-68
2021/01/08 07:21:59;;;;;;;4.40;1.20;;;;;;;1.39;89.13;101015.22;5087235;28;20210;-69
2021/01/08 07:24:29;;;;;;;2.10;1.37;;;;;;;1.38;88.75;101009.06;5085510;28;20601;-69
2021/01/08 07:27:16;;;;;;;6.17;1.20;;;;;;;1.30;89.21;101021.63;5070708;28;20280;-68
2021/01/08 07:29:51;;;;;;;2.43;1.40;;;;;;;1.30;89.53;101023.41;5064295;28;20206;-68
2021/01/08 07:32:31;;;;;;;1.63;1.10;;;;;;;1.32;89.37;101025.09;5067510;28;20281;-68
2021/01/08 07:34:59;;;;;;;2.73;1.60;;;;;;;1.34;89.40;101025.94;5076474;28;20196;-68
2021/01/08 07:37:55;;;;;;;2.97;1.73;;;;;;;1.30;89.28;101029.56;5080121;28;20207;-68
2021/01/08 07:40:23;;;;;;;2.07;1.40;;;;;;;1.27;89.30;101020.84;5071602;28;20207;-68
2021/01/08 07:42:58;;;;;;;1.60;1.50;;;;;;;1.31;89.41;101031.31;5080780;28;20318;-68
2021/01/08 07:45:45;;;;;;;1.77;1.47;;;;;;;1.29;89.42;101025.19;5076343;28;20223;-68
2021/01/08 07:48:24;;;;;;;4.67;2.13;;;;;;;1.12;89.57;101007.06;5063016;28;20215;-68
2021/01/08 07:50:59;;;;;;;3.37;1.93;;;;;;;1.29;89.38;101032.25;5065535;28;20196;-68
2021/01/08 07:53:48;;;;;;;1.97;1.40;;;;;;;0.96;89.23;100975.78;5065199;28;20317;-68
2021/01/08 07:56:18;;;;;;;1.50;1.40;;;;;;;1.27;89.49;101048.16;5063694;28;20204;-69
2021/01/08 07:58:47;;;;;;;2.03;1.57;;;;;;;0.96;89.47;100991.66;5062050;28;20202;-68
2021/01/08 08:01:17;;;;;;;4.17;2.00;;;;;;;1.26;89.48;101038.50;5061674;28;20594;-69
2021/01/08 08:03:45;;;;;;;3.10;1.83;;;;;;;1.37;89.37;101054.94;5066129;28;20316;-69
2021/01/08 08:06:12;;;;;;;2.37;1.63;;;;;;;1.36;89.21;101057.63;5069899;28;20202;-68
2021/01/08 08:08:41;;;;;;;1.30;1.20;;;;;;;1.36;88.95;101041.75;5068450;28;20199;-69
2021/01/08 08:11:13;;;;;;;2.17;1.70;;;;;;;1.24;88.94;101037.66;5065754;28;20203;-68
2021/01/08 08:13:40;;;;;;;2.83;1.77;;;;;;;1.16;89.27;101040.47;5061868;28;20231;-69
2021/01/08 08:16:08;;;;;;;4.70;1.37;;;;;;;1.40;89.17;101068.09;5066068;28;20573;-69
2021/01/08 08:18:49;;;;;;;2.10;1.43;;;;;;;1.41;89.13;101072.47;5065680;28;20294;-68
2021/01/08 08:21:21;;;;;;;1.43;1.23;;;;;;;1.38;89.37;101082.28;5065389;28;20657;-69
2021/01/08 08:23:52;;;;;;;3.57;1.67;;;;;;;1.36;89.15;101073.50;5075633;28;20203;-68
2021/01/08 08:26:20;;;;;;;2.93;1.20;;;;;;;1.21;88.88;101032.41;5070283;28;20225;-69
2021/01/08 08:29:01;;;;;;;1.87;1.40;;;;;;;1.41;88.99;101077.78;5066095;28;20195;-68
2021/01/08 08:31:30;;;;;;;5.63;1.30;;;;;;;1.43;88.88;101080.38;5064420;28;20670;-69
2021/01/08 08:33:58;;;;;;;2.50;1.43;;;;;;;1.39;89.22;101079.59;5069862;28;20247;-69
2021/01/08 08:36:27;;;;;;;3.67;1.80;;;;;;;1.41;89.18;101079.56;5064433;28;20643;-69
2021/01/08 08:39:05;;;;;;;2.70;1.70;;;;;;;1.41;88.97;101080.41;5065081;28;20293;-69
2021/01/08 08:41:34;;;;;;;3.60;1.70;;;;;;;1.39;88.96;101089.31;5058169;28;20203;-69
2021/01/08 08:44:06;;;;;;;1.43;1.33;;;;;;;1.07;88.98;101030.13;5071515;28;20208;-69
2021/01/08 08:46:49;;;;;;;2.73;1.37;;;;;;;1.40;89.16;101096.34;5061956;28;20201;-69
2021/01/08 08:49:18;;;;;;;2.77;1.53;;;;;;;1.42;89.05;101097.16;5065172;28;20212;-68
2021/01/08 08:51:47;;;;;;;1.67;1.20;;;;;;;1.50;88.71;101097.84;5065448;28;20197;-68
2021/01/08 08:54:15;;;;;;;1.73;1.13;;;;;;;1.50;88.89;101095.19;5064322;28;20334;-68
2021/01/08 08:56:53;;;;;;;2.43;1.37;;;;;;;1.47;88.78;101104.06;5064955;28;20578;-69
2021/01/08 08:59:37;;;;;;;3.23;2.00;;;;;;;1.45;89.06;101108.53;5067251;28;20238;-69
2021/01/08 09:02:05;;;;;;;1.67;1.33;;;;;;;1.45;88.92;101108.53;5065194;28;20253;-69
2021/01/08 09:04:33;;;;;;;2.07;1.70;;;;;;;1.45;89.02;101111.19;5064912;28;20207;-68
2021/01/08 09:07:02;;;;;;;1.90;1.50;;;;;;;1.50;88.68;101111.94;5064538;28;20698;-69
2021/01/08 09:09:37;;;;;;;2.20;1.90;;;;;;;1.52;88.46;101112.75;5063841;28;20666;-69
2021/01/08 09:12:17;;;;;;;3.57;1.57;;;;;;;1.49;88.97;101112.84;5076429;28;20210;-68
2021/01/08 09:14:47;;;;;;;1.50;1.30;;;;;;;1.52;88.76;101111.91;5070786;28;20218;-68
2021/01/08 09:17:21;;;;;;;1.40;1.30;;;;;;;1.53;88.71;101118.94;5065343;28;20199;-68
2021/01/08 09:19:53;;;;;;;2.70;1.50;;;;;;;1.52;88.66;101115.41;5073244;28;20731;-69
2021/01/08 09:22:20;;;;;;;1.57;1.37;;;;;;;1.51;88.71;101120.75;5082014;28;20208;-69
2021/01/08 09:24:49;;;;;;;3.70;1.47;;;;;;;1.46;88.77;101120.00;5064242;28;20204;-69
2021/01/08 09:27:17;;;;;;;378.63;120.20;;;;;;;1.54;88.78;101120.69;5075757;28;20257;-69
2021/01/08 09:29:45;;;;;;;1.83;1.47;;;;;;;1.61;88.59;101111.69;5080861;28;20342;-69
2021/01/08 09:32:30;;;;;;;1.60;1.50;;;;;;;1.57;89.13;101117.09;5059361;28;20203;-69
2021/01/08 09:35:00;;;;;;;4.60;1.60;;;;;;;1.51;88.84;101121.63;5062926;28;20220;-69
2021/01/08 09:37:37;;;;;;;1.50;1.40;;;;;;;1.53;89.02;101134.81;5072419;28;20571;-68
2021/01/08 09:40:13;;;;;;;3.83;2.10;;;;;;;1.61;88.75;101126.69;5090241;28;20628;-68
2021/01/08 09:42:41;;;;;;;2.13;1.90;;;;;;;1.74;88.85;101121.03;5057943;28;20210;-68
2021/01/08 09:45:32;;;;;;;2.27;1.63;;;;;;;1.71;88.58;101128.19;5064486;28;20196;-68
2021/01/08 09:48:00;;;;;;;2.20;1.43;;;;;;;1.59;88.78;101133.81;5058324;28;20206;-68
2021/01/08 09:50:29;;;;;;;2.57;1.67;;;;;;;1.10;88.48;101042.41;5077957;28;20648;-68
2021/01/08 09:52:59;;;;;;;1.80;1.53;;;;;;;1.53;88.24;101119.81;5059730;28;20635;-68
2021/01/08 09:55:28;;;;;;;3.97;1.70;;;;;;;1.71;88.70;101130.84;5057539;28;20716;-68
2021/01/08 09:57:59;;;;;;;2.20;1.53;;;;;;;1.60;89.07;101098.50;5061963;28;20207;-68
2021/01/08 10:00:29;;;;;;;3.93;1.57;;;;;;;1.76;88.38;101124.53;5073102;28;20756;-69
2021/01/08 10:03:03;;;;;;;1.40;1.17;;;;;;;1.73;88.37;101127.25;5061927;28;20197;-69
2021/01/08 10:05:31;;;;;;;2.17;1.33;;;;;;;1.78;88.18;101140.38;5074922;28;20261;-68
2021/01/08 10:08:00;;;;;;;1.83;1.27;;;;;;;1.71;88.13;101141.44;5071985;28;20654;-68
2021/01/08 10:10:41;;;;;;;1.17;1.07;;;;;;;1.77;88.05;101138.63;5070323;28;20228;-68
2021/01/08 10:13:20;;;;;;;3.77;1.70;;;;;;;1.85;87.43;101141.97;5059772;28;20289;-68
2021/01/08 10:15:49;;;;;;;2.30;1.57;;;;;;;1.87;87.56;101142.81;5058705;28;20209;-69
2021/01/08 10:18:22;;;;;;;2.40;1.67;;;;;;;1.49;87.59;101089.03;5060936;28;20205;-68
2021/01/08 10:20:50;;;;;;;2.80;1.90;;;;;;;1.77;87.64;101134.19;5067981;28;20211;-68
2021/01/08 10:23:19;;;;;;;6.37;1.57;;;;;;;1.78;87.65;101143.88;5068233;28;20709;-68
2021/01/08 10:25:47;;;;;;;3.17;1.70;;;;;;;1.89;87.68;101145.41;5078245;28;20234;-68
2021/01/08 10:28:20;;;;;;;2.10;1.50;;;;;;;1.79;87.73;101137.69;5079976;28;20680;-68
2021/01/08 10:30:50;;;;;;;2.37;1.70;;;;;;;1.79;87.61;101140.31;5075602;28;20635;-68
2021/01/08 10:33:23;;;;;;;2.50;1.53;;;;;;;1.76;87.54;101140.41;5078832;28;20709;-68
2021/01/08 10:35:52;;;;;;;2.30;1.70;;;;;;;1.78;87.80;101135.06;5077459;28;20298;-68
2021/01/08 10:38:20;;;;;;;2.47;1.50;;;;;;;1.80;87.13;101139.41;5082944;28;20721;-68
2021/01/08 10:40:47;;;;;;;3.13;1.60;;;;;;;1.82;87.48;101136.72;5082401;28;20200;-68
2021/01/08 10:43:15;;;;;;;2.80;1.53;;;;;;;1.76;87.80;101140.41;5083810;28;20578;-68
2021/01/08 10:45:44;;;;;;;3.43;1.70;;;;;;;1.75;87.44;101135.16;5083652;28;20307;-68
2021/01/08 10:48:13;;;;;;;3.43;1.63;;;;;;;1.67;87.85;101138.00;5072411;28;20215;-69
2021/01/08 10:50:42;;;;;;;4.47;1.47;;;;;;;1.65;87.89;101123.06;5063850;28;20566;-68
2021/01/08 10:53:09;;;;;;;2.83;1.63;;;;;;;1.78;87.71;101140.38;5061967;28;20208;-68
2021/01/08 10:55:36;;;;;;;2.40;1.53;;;;;;;1.80;87.70;101133.25;5061858;28;20673;-68
2021/01/08 10:58:04;;;;;;;2.07;1.60;;;;;;;1.74;87.61;101129.00;5057903;28;20282;-68
2021/01/08 11:00:31;;;;;;;7.00;1.90;;;;;;;1.75;87.60;101143.97;5059359;28;20205;-68
2021/01/08 11:02:58;;;;;;;2.10;1.60;;;;;;;1.74;87.76;101144.88;5060277;28;20580;-68
2021/01/08 11:05:26;;;;;;;3.47;1.67;;;;;;;1.77;87.91;101143.91;5058718;28;20340;-68
2021/01/08 11:07:54;;;;;;;4.20;1.87;;;;;;;1.65;87.90;101138.94;5059615;28;20697;-68
2021/01/08 11:10:21;;;;;;;2.00;1.70;;;;;;;1.75;87.77;101148.38;5059579;28;20310;-69
2021/01/08 11:12:48;;;;;;;3.27;1.70;;;;;;;1.76;88.09;101158.94;5059557;28;20263;-69
2021/01/08 11:15:16;;;;;;;2.30;1.60;;;;;;;1.74;87.97;101154.59;5059388;28;20219;-69
2021/01/08 11:17:43;;;;;;;3.60;1.70;;;;;;;1.75;88.04;101151.03;5060170;28;20210;-69
2021/01/08 11:20:12;;;;;;;5.10;1.50;;;;;;;1.76;87.75;101153.63;5060075;28;20208;-69
2021/01/08 11:22:40;;;;;;;4.10;2.00;;;;;;;1.73;87.94;101153.72;5058109;28;20210;-69
2021/01/08 11:25:09;;;;;;;3.33;1.47;;;;;;;1.79;87.99;101153.56;5060965;28;20270;-69
2021/01/08 11:27:36;;;;;;;54.80;20.20;;;;;;;1.77;87.87;101154.50;5076147;28;20563;-69
2021/01/08 11:30:05;;;;;;;4.07;3.13;;;;;;;1.84;87.75;101153.47;5075618;28;20222;-69
2021/01/08 11:32:32;;;;;;;4.23;1.80;;;;;;;1.77;87.29;101159.81;5062374;28;20254;-69
2021/01/08 11:35:00;;;;;;;3.67;1.90;;;;;;;1.82;87.62;101149.97;5056720;28;20225;-69
2021/01/08 11:37:30;;;;;;;2.60;1.40;;;;;;;1.86;87.68;101171.06;5072724;28;20203;-69
2021/01/08 11:39:57;;;;;;;3.77;2.17;;;;;;;1.83;87.70;101160.50;5071991;28;20200;-69
2021/01/08 11:42:25;;;;;;;2.67;1.80;;;;;;;1.82;87.69;101163.19;5073332;28;20290;-69
2021/01/08 11:44:52;;;;;;;3.27;1.60;;;;;;;1.84;87.63;101158.75;5069316;28;20207;-67